21tohkohmaru — JK5486 — position and weather

sailwx.info

Track history (hours):
 
Tides and Currents Weather Stations Pressure Air Temp Water Temp Dewpoint Dewpoint Depression Visibility Wind Speed Wind Dir Waves Ship Positions

21tohkohmaru

Last reported at 2017-Nov-17 21:07 UTC. Time now 2017-Nov-18 04:46 UTC.
Position N 34°37' E 134°57'.

Length 84 m; draft 4 m.

Type: Cargo ship. MMSI: 431400727.

Date/timePositionNaut miles runAvg speedWind from/ knotsBaromVisibWave heightAir tempDewpointWater temp
2017-Nov-17 21:07N 34°37' E 134°57'315.1
2017-Nov-17 20:54N 34°37' E 135°01'513.4
2017-Nov-17 20:30N 34°36' E 135°07'713.2
2017-Nov-17 20:00N 34°36' E 135°15'612.7
2017-Nov-17 19:30N 34°38' E 135°23'4 7.2
2017-Nov-17 19:00N 34°38' E 135°27'0 0.0
2017-Nov-17 18:29N 34°38' E 135°27'0 0.0
2017-Nov-17 17:59N 34°38' E 135°27'0 0.0
2017-Nov-17 17:29N 34°38' E 135°27'0 0.0
2017-Nov-17 16:59N 34°38' E 135°27'0 0.0
2017-Nov-17 16:23N 34°38' E 135°27'0 0.0
2017-Nov-17 15:53N 34°38' E 135°27'0 0.0
2017-Nov-17 15:23N 34°38' E 135°27'0 0.0
2017-Nov-17 14:53N 34°38' E 135°27'0 0.0
2017-Nov-17 14:29N 34°38' E 135°27'0 0.0
2017-Nov-17 13:53N 34°38' E 135°27'0 0.0
2017-Nov-17 13:30N 34°38' E 135°27'3 5.5
2017-Nov-17 13:00N 34°38' E 135°24'1 1.2
2017-Nov-17 11:51N 34°37' E 135°23'0 0.0
2017-Nov-17 11:21N 34°37' E 135°23'0 0.0
2017-Nov-17 10:57N 34°37' E 135°23'0 0.0
2017-Nov-17 10:27N 34°37' E 135°23'0 0.0
2017-Nov-17 09:39N 34°37' E 135°23'0 0.2
2017-Nov-17 09:27N 34°37' E 135°23'0 0.0
2017-Nov-17 08:39N 34°37' E 135°23'0 0.0
2017-Nov-17 08:27N 34°37' E 135°23'0 0.0
2017-Nov-17 07:57N 34°37' E 135°23'0 0.0
2017-Nov-17 06:15N 34°37' E 135°23'0 0.0
2017-Nov-17 05:09N 34°37' E 135°23'0 0.1
2017-Nov-17 04:51N 34°37' E 135°23'0 0.0
2017-Nov-17 04:15N 34°37' E 135°23'0 0.0
2017-Nov-17 03:51N 34°37' E 135°23'0 0.0
2017-Nov-17 01:51N 34°37' E 135°23'0 0.0
2017-Nov-17 01:27N 34°37' E 135°23'0 0.0
2017-Nov-16 23:45N 34°37' E 135°23'0 0.1
2017-Nov-16 23:21N 34°37' E 135°23'0 0.0
2017-Nov-16 22:51N 34°37' E 135°23'0 0.0
2017-Nov-16 22:27N 34°37' E 135°23'0 0.1
2017-Nov-16 21:51N 34°37' E 135°23'3 8.2
2017-Nov-16 21:30N 34°35' E 135°21'510.1
2017-Nov-16 21:00N 34°31' E 135°17'510.3
2017-Nov-16 20:30N 34°28' E 135°12'611.5
2017-Nov-16 19:58N 34°24' E 135°07'811.9
2017-Nov-16 19:17N 34°16' E 135°03'310.7
2017-Nov-16 19:00N 34°14' E 135°06'1 2.0
2017-Nov-16 18:30N 34°15' E 135°07'0 0.0
2017-Nov-16 17:59N 34°15' E 135°07'0 0.0
2017-Nov-16 17:29N 34°15' E 135°07'0 0.0
2017-Nov-16 16:59N 34°15' E 135°07'0 0.0
2017-Nov-16 16:29N 34°15' E 135°07'0 0.0
2017-Nov-16 15:59N 34°15' E 135°07'0 0.0
2017-Nov-16 15:29N 34°15' E 135°07'0 0.0
2017-Nov-16 14:59N 34°15' E 135°07'0 0.0
2017-Nov-16 14:29N 34°15' E 135°07'0 0.0
2017-Nov-16 13:56N 34°15' E 135°07'0 0.0
2017-Nov-16 13:26N 34°15' E 135°07'0 0.0
2017-Nov-16 12:59N 34°15' E 135°07'0 0.0
2017-Nov-16 12:29N 34°15' E 135°07'0 0.0
2017-Nov-16 11:59N 34°15' E 135°07'0 0.0
2017-Nov-16 11:29N 34°15' E 135°07'0 0.0
2017-Nov-16 10:59N 34°15' E 135°07'0 0.0
2017-Nov-16 10:26N 34°15' E 135°07'0 0.0
2017-Nov-16 09:59N 34°15' E 135°07'0 0.0
2017-Nov-16 09:29N 34°15' E 135°07'0 0.0
2017-Nov-16 08:59N 34°15' E 135°07'1 2.0
2017-Nov-16 08:30N 34°15' E 135°06'0 0.5
2017-Nov-16 08:00N 34°15' E 135°06'0 0.1
2017-Nov-16 07:30N 34°15' E 135°06'0 0.0
2017-Nov-16 07:00N 34°15' E 135°06'0 0.0
2017-Nov-16 06:30N 34°15' E 135°06'0 0.0
2017-Nov-16 06:00N 34°15' E 135°06'0 0.0
2017-Nov-16 05:30N 34°15' E 135°06'1 1.4
2017-Nov-16 05:00N 34°15' E 135°05'1612.3
2017-Nov-16 03:42N 34°31' E 135°05'313.3
2017-Nov-16 03:28N 34°34' E 135°05'812.9
2017-Nov-16 02:52N 34°36' E 134°56'9 0.3
2017-Nov-14 19:08N 34°40' E 134°46'412.2
2017-Nov-14 18:50N 34°39' E 134°50'612.3
2017-Nov-14 18:22N 34°37' E 134°57'411.0
2017-Nov-14 18:00N 34°37' E 135°02'4 8.9
2017-Nov-14 17:30N 34°34' E 135°05'611.2
2017-Nov-14 17:00N 34°28' E 135°04'611.1
2017-Nov-14 16:29N 34°23' E 135°02'710.6
2017-Nov-14 15:51N 34°16' E 134°60'3 9.4
2017-Nov-14 15:30N 34°13' E 134°60'510.8
2017-Nov-14 15:00N 34°08' E 135°00'  
2017-Nov-08 06:55N 35°11' E 139°46'611.0
2017-Nov-08 06:20N 35°17' E 139°45'411.5
2017-Nov-08 06:01N 35°20' E 139°43'510.9
2017-Nov-08 05:31N 35°25' E 139°45'510.5
2017-Nov-08 05:00N 35°22' E 139°50'1 2.3
2017-Nov-08 04:30N 35°22' E 139°51'0 0.0
2017-Nov-08 03:56N 35°22' E 139°51'0 0.0
2017-Nov-08 03:29N 35°22' E 139°51'0 0.0
2017-Nov-08 02:56N 35°22' E 139°51'0 0.0
2017-Nov-08 02:17N 35°22' E 139°51'0 0.0
2017-Nov-08 01:59N 35°22' E 139°51'0 0.0
2017-Nov-08 01:29N 35°22' E 139°51'0 0.0
2017-Nov-08 00:53N 35°22' E 139°51'0 0.0
2017-Nov-07 21:11N 35°22' E 139°51'  
Track history (hours):
 
Tides and Currents Weather Stations Pressure Air Temp Water Temp Dewpoint Dewpoint Depression Visibility Wind Speed Wind Dir Waves Ship Positions

21tohkohmaru

Last reported at 2017-Nov-17 21:07 UTC. Time now 2017-Nov-18 04:46 UTC.
Position N 34°37' E 134°57'.

Length 84 m; draft 4 m.

Type: Cargo ship. MMSI: 431400727.

Date/timePositionNaut miles runAvg speedWind from/ knotsBaromVisibWave heightAir tempDewpointWater temp
2017-Nov-17 21:07N 34°37' E 134°57'315.1
2017-Nov-17 20:54N 34°37' E 135°01'513.4
2017-Nov-17 20:30N 34°36' E 135°07'713.2
2017-Nov-17 20:00N 34°36' E 135°15'612.7
2017-Nov-17 19:30N 34°38' E 135°23'4 7.2
2017-Nov-17 19:00N 34°38' E 135°27'0 0.0
2017-Nov-17 18:29N 34°38' E 135°27'0 0.0
2017-Nov-17 17:59N 34°38' E 135°27'0 0.0
2017-Nov-17 17:29N 34°38' E 135°27'0 0.0
2017-Nov-17 16:59N 34°38' E 135°27'0 0.0
2017-Nov-17 16:23N 34°38' E 135°27'0 0.0
2017-Nov-17 15:53N 34°38' E 135°27'0 0.0
2017-Nov-17 15:23N 34°38' E 135°27'0 0.0
2017-Nov-17 14:53N 34°38' E 135°27'0 0.0
2017-Nov-17 14:29N 34°38' E 135°27'0 0.0
2017-Nov-17 13:53N 34°38' E 135°27'0 0.0
2017-Nov-17 13:30N 34°38' E 135°27'3 5.5
2017-Nov-17 13:00N 34°38' E 135°24'1 1.2
2017-Nov-17 11:51N 34°37' E 135°23'0 0.0
2017-Nov-17 11:21N 34°37' E 135°23'0 0.0
2017-Nov-17 10:57N 34°37' E 135°23'0 0.0
2017-Nov-17 10:27N 34°37' E 135°23'0 0.0
2017-Nov-17 09:39N 34°37' E 135°23'0 0.2
2017-Nov-17 09:27N 34°37' E 135°23'0 0.0
2017-Nov-17 08:39N 34°37' E 135°23'0 0.0
2017-Nov-17 08:27N 34°37' E 135°23'0 0.0
2017-Nov-17 07:57N 34°37' E 135°23'0 0.0
2017-Nov-17 06:15N 34°37' E 135°23'0 0.0
2017-Nov-17 05:09N 34°37' E 135°23'0 0.1
2017-Nov-17 04:51N 34°37' E 135°23'0 0.0
2017-Nov-17 04:15N 34°37' E 135°23'0 0.0
2017-Nov-17 03:51N 34°37' E 135°23'0 0.0
2017-Nov-17 01:51N 34°37' E 135°23'0 0.0
2017-Nov-17 01:27N 34°37' E 135°23'0 0.0
2017-Nov-16 23:45N 34°37' E 135°23'0 0.1
2017-Nov-16 23:21N 34°37' E 135°23'0 0.0
2017-Nov-16 22:51N 34°37' E 135°23'0 0.0
2017-Nov-16 22:27N 34°37' E 135°23'0 0.1
2017-Nov-16 21:51N 34°37' E 135°23'3 8.2
2017-Nov-16 21:30N 34°35' E 135°21'510.1
2017-Nov-16 21:00N 34°31' E 135°17'510.3
2017-Nov-16 20:30N 34°28' E 135°12'611.5
2017-Nov-16 19:58N 34°24' E 135°07'811.9
2017-Nov-16 19:17N 34°16' E 135°03'310.7
2017-Nov-16 19:00N 34°14' E 135°06'1 2.0
2017-Nov-16 18:30N 34°15' E 135°07'0 0.0
2017-Nov-16 17:59N 34°15' E 135°07'0 0.0
2017-Nov-16 17:29N 34°15' E 135°07'0 0.0
2017-Nov-16 16:59N 34°15' E 135°07'0 0.0
2017-Nov-16 16:29N 34°15' E 135°07'0 0.0
2017-Nov-16 15:59N 34°15' E 135°07'0 0.0
2017-Nov-16 15:29N 34°15' E 135°07'0 0.0
2017-Nov-16 14:59N 34°15' E 135°07'0 0.0
2017-Nov-16 14:29N 34°15' E 135°07'0 0.0
2017-Nov-16 13:56N 34°15' E 135°07'0 0.0
2017-Nov-16 13:26N 34°15' E 135°07'0 0.0
2017-Nov-16 12:59N 34°15' E 135°07'0 0.0
2017-Nov-16 12:29N 34°15' E 135°07'0 0.0
2017-Nov-16 11:59N 34°15' E 135°07'0 0.0
2017-Nov-16 11:29N 34°15' E 135°07'0 0.0
2017-Nov-16 10:59N 34°15' E 135°07'0 0.0
2017-Nov-16 10:26N 34°15' E 135°07'0 0.0
2017-Nov-16 09:59N 34°15' E 135°07'0 0.0
2017-Nov-16 09:29N 34°15' E 135°07'0 0.0
2017-Nov-16 08:59N 34°15' E 135°07'1 2.0
2017-Nov-16 08:30N 34°15' E 135°06'0 0.5
2017-Nov-16 08:00N 34°15' E 135°06'0 0.1
2017-Nov-16 07:30N 34°15' E 135°06'0 0.0
2017-Nov-16 07:00N 34°15' E 135°06'0 0.0
2017-Nov-16 06:30N 34°15' E 135°06'0 0.0
2017-Nov-16 06:00N 34°15' E 135°06'0 0.0
2017-Nov-16 05:30N 34°15' E 135°06'1 1.4
2017-Nov-16 05:00N 34°15' E 135°05'1612.3
2017-Nov-16 03:42N 34°31' E 135°05'313.3
2017-Nov-16 03:28N 34°34' E 135°05'812.9
2017-Nov-16 02:52N 34°36' E 134°56'9 0.3
2017-Nov-14 19:08N 34°40' E 134°46'412.2
2017-Nov-14 18:50N 34°39' E 134°50'612.3
2017-Nov-14 18:22N 34°37' E 134°57'411.0
2017-Nov-14 18:00N 34°37' E 135°02'4 8.9
2017-Nov-14 17:30N 34°34' E 135°05'611.2
2017-Nov-14 17:00N 34°28' E 135°04'611.1
2017-Nov-14 16:29N 34°23' E 135°02'710.6
2017-Nov-14 15:51N 34°16' E 134°60'3 9.4
2017-Nov-14 15:30N 34°13' E 134°60'510.8
2017-Nov-14 15:00N 34°08' E 135°00'  
2017-Nov-08 06:55N 35°11' E 139°46'611.0
2017-Nov-08 06:20N 35°17' E 139°45'411.5
2017-Nov-08 06:01N 35°20' E 139°43'510.9
2017-Nov-08 05:31N 35°25' E 139°45'510.5
2017-Nov-08 05:00N 35°22' E 139°50'1 2.3
2017-Nov-08 04:30N 35°22' E 139°51'0 0.0
2017-Nov-08 03:56N 35°22' E 139°51'0 0.0
2017-Nov-08 03:29N 35°22' E 139°51'0 0.0
2017-Nov-08 02:56N 35°22' E 139°51'0 0.0
2017-Nov-08 02:17N 35°22' E 139°51'0 0.0
2017-Nov-08 01:59N 35°22' E 139°51'0 0.0
2017-Nov-08 01:29N 35°22' E 139°51'0 0.0
2017-Nov-08 00:53N 35°22' E 139°51'0 0.0
2017-Nov-07 21:11N 35°22' E 139°51'  

Dump ship's entire track history